Jacksonville International Airport
KJAX : now visible

Airfield :











YOU CAN JOIN US ON...

 
LOGIN :

Register | Disclaimer

   EN    FR    IT 

 









Legend :    VFR   Marginal VFR   IFR   Intensive IFR   Very Intensive IFR
Visi :
Ceiling :
>= 8 km
>= 3000ft
5 to 8 km
1000 to 3000 ft
1500m to 5 km
500 to 1000 ft
800 to 1500m
200 to 500 ft
< 800m
< 200 ft
Symbols :   Thunderstorms  Fog  Heavy snow  Heavy precipitations  Wind > 20 kt






- Airport Elevation : 30 ft
- IATA code : JAX


KJAX - Jacksonville International

CURRENT METAR :
  • 041856Z 00000KT 10SM SCT050 SCT100 BKN250 33/24 A2993 RMK AO2 RAE39 SLP135 P0000 T03330239

EXPIRED METARs :
  • 041756Z 36007KT 10SM -RA SCT050 SCT100 BKN250 31/26 A2995 RMK AO2 LTG DSNT N AND NW RAB38 SLP142 P0002 60002 T03060261 10339 20267 58006
  • 041656Z 27004KT 10SM SCT040TCU SCT075 BKN250 33/24 A2996 RMK AO2 LTG DSNT N AND NE SLP145 TCU S T03330239

TAF KJAX
Valid from the 04 at 18:00 until the 05 at 18:00 UTC


041737Z 0418/0518 18006KT P6SM VCTS SCT040CB SCT060
TEMPO 0418/0420 VRB10G20KT 4SM TSRA BKN035CB
FM042000 14008KT P6SM SHRA VCTS SCT050CB SCT250
TEMPO 0420/0424 VRB15G30KT 2SM +TSRA BKN030CB
FM050300 17004KT P6SM VCSH SCT050 SCT250
FM050800 20003KT 6SM BR SCT020
FM051300 22005KT P6SM SCT025
KZJX FIR / North America



MET'MAP, your aeronautical weather chart ! - Copyright ORBIFLY December 2007 - Disclaimer

ORBIFLY MET'MAP TEAM :

Programming & Development : Alexandra Zaïnal
Concept & original design : Baudouin d'Aumeries
Assistance for programming : Marc-Olivier Méhu
Technical & hardware support : Manuel Goepfert

Contact : metmap@orbifly.com




SOURCES & CREDITS :

   NOAA       Earth
Advisory